Hlavní strana
METAR-TAF:

METAR-TAF

Letiště :

Vadsø, Norsko

zeměpisná šířka: 70-04N, zeměpisná délka: 029-51E, výška: 3 m

Aktuální stav počasí

Zpráva byla vytvořena před 34 minutami, v 13:50 UTC
Západní vítr 15 kt
Teplota -3°C
Vlhkost vzduchu 80%
Tlak 1005 hPa
Viditelnost 10 km a více
Polojasno ve výšce 800 ft
Oblačno až skoro zataženo ve výšce 1400 ft

METAR: ENVD 251350Z 27015KT 9999 SCT008 BKN014 M03/M06 Q1005

Čas: 15:24 (14:24 UTC)

Předpověď počasí

Zpráva byla vytvořena před 3 hodinami a 24 minutami, v 11:00 UTC
Předpověď platná od 25 v 12 UTC do 25 v 21 UTC
Západojihozápadní vítr 20 kt
Viditelnost 10 km a více
Polojasno ve výšce 1000 ft
Oblačno až skoro zataženo ve výšce 2000 ft
Dočasný
od 25 v 12 UTC do 25 v 18 UTC
Oblačno až skoro zataženo ve výšce 500 ft

TAF: ENVD 251100Z 2512/2521 24020KT 9999 SCT010 BKN020 TEMPO 2512/2518 BKN005

Stav a předpovědi počasí z více než 4 000 letišť (zprávy METAR a TAF).

Červené a žluté tečky na mapě představují dostupné meteorologické stanice.

Když kurzor umístíte na tečku, zobrazí se název stanice.

Pak kliknutím zobrazíte stav a předpověď počasí.

Chcete-li změnit mapu, kliknutím na zelené tlačítko se znaménkem +mapu přiblížíte, kliknutím na zelené tlačítko se znaménkem – mapu oddálíte a kliknutím na zelené šipky přejdete na sousední mapy.


METAR-TAF: